Maersk Iowa — KABL — position and weather

sailwx.info

Track history (hours):
 
Tides and Currents Weather Stations Pressure Air Temp Water Temp Dewpoint Dewpoint Depression Visibility Wind Speed Wind Dir Waves Ship Positions

Maersk Iowa

Owner: FARRELL LINES INC, Norfolk, VA. More information available from US FCC via Universal Licensing System and Coast Guard Vessel Documentation Center.

Last reported at 2016-Jun-29 23:28 UTC. Time now 2016-Jun-30 01:32 UTC.
Position N 53°08' E 004°30'.

Length 292 m; draft 11 m.

Type: Ship (hazmat cat A). MMSI: 367606000.

Date/timePositionNaut miles runAvg speedWind from/ knotsBaromVisibWave heightAir tempDewpointWater temp
2016-Jun-29 23:28N 53°08' E 004°30'1415.6
2016-Jun-29 22:33N 52°56' E 004°18'1615.4
2016-Jun-29 21:32N 52°42' E 004°05'1515.2
2016-Jun-29 20:33N 52°29' E 003°54'1716.8
2016-Jun-29 19:33N 52°12' E 003°54'1111.4
2016-Jun-29 18:33N 52°01' E 003°57'4 3.5
2016-Jun-29 17:33N 51°59' E 004°01'1 1.4
2016-Jun-29 16:33N 51°57' E 004°00'0 0.0
2016-Jun-29 15:32N 51°57' E 004°00'0 0.0
2016-Jun-29 14:32N 51°57' E 004°00'0 0.0
2016-Jun-29 13:32N 51°57' E 004°00'0 0.0
2016-Jun-29 12:32N 51°57' E 004°00'0 0.0
2016-Jun-29 11:32N 51°57' E 004°00'0 0.0
2016-Jun-29 10:32N 51°57' E 004°00'0 0.0
2016-Jun-29 09:32N 51°57' E 004°00'0 0.0
2016-Jun-29 08:32N 51°57' E 004°00'0 0.0
2016-Jun-29 07:32N 51°57' E 004°00'0 0.0
2016-Jun-29 06:32N 51°57' E 004°00'0 0.0
2016-Jun-29 05:32N 51°57' E 004°00'0 0.0
2016-Jun-29 04:32N 51°57' E 004°00'0 0.0
2016-Jun-29 03:32N 51°57' E 004°00'0 0.0
2016-Jun-29 02:32N 51°57' E 004°00'0 0.0
2016-Jun-29 01:32N 51°57' E 004°00'0 0.0
2016-Jun-29 00:33N 51°57' E 004°00'0 0.0
2016-Jun-28 23:33N 51°57' E 004°00'0 0.0
2016-Jun-28 22:33N 51°57' E 004°00'0 0.0
2016-Jun-28 21:33N 51°57' E 004°00'0 0.0
2016-Jun-28 20:33N 51°57' E 004°00'0 0.0
2016-Jun-28 19:33N 51°57' E 004°00'0 0.0
2016-Jun-28 18:33N 51°57' E 004°00'0 0.0
2016-Jun-28 17:33N 51°57' E 004°00'0 0.0
2016-Jun-28 16:33N 51°57' E 004°00'0 0.0
2016-Jun-28 15:33N 51°57' E 004°00'0 0.0
2016-Jun-28 14:33N 51°57' E 004°00'0 0.0
2016-Jun-28 13:33N 51°57' E 004°00'0 0.0
2016-Jun-28 12:33N 51°57' E 004°00'0 0.0
2016-Jun-28 11:33N 51°57' E 004°00'0 0.0
2016-Jun-28 10:33N 51°57' E 004°00'0 0.0
2016-Jun-28 09:33N 51°57' E 004°00'0 0.0
2016-Jun-28 08:33N 51°57' E 004°00'2 1.9
2016-Jun-28 07:33N 51°58' E 004°03'1 1.4
2016-Jun-28 06:33N 51°59' E 004°02'17 8.6
2016-Jun-28 04:33N 51°57' E 003°34'1611.7
2016-Jun-28 03:10N 51°50' E 003°10'2 3.8
2016-Jun-28 02:33N 51°51' E 003°14'4 3.9
2016-Jun-28 01:32N 51°51' E 003°08'1111.3
2016-Jun-28 00:32N 51°47' E 002°51'1110.2
2016-Jun-27 23:28N 51°46' E 003°08'7 7.8
2016-Jun-27 22:31N 51°39' E 003°11'1515.8
2016-Jun-27 21:33N 51°25' E 002°60'1615.6
2016-Jun-27 20:33N 51°25' E 003°25'1211.5
2016-Jun-27 19:34N 51°23' E 003°43'1010.2
2016-Jun-27 18:33N 51°26' E 003°59'9 9.1
2016-Jun-27 17:33N 51°23' E 004°13'6 6.2
2016-Jun-27 16:33N 51°18' E 004°16'0 0.0
2016-Jun-27 15:33N 51°18' E 004°16'0 0.0
2016-Jun-27 14:33N 51°18' E 004°16'0 0.0
2016-Jun-27 13:29N 51°18' E 004°16'0 0.0
2016-Jun-27 12:32N 51°18' E 004°16'0 0.0
2016-Jun-27 11:32N 51°18' E 004°16'0 0.0
2016-Jun-27 10:32N 51°18' E 004°16'0 0.0
2016-Jun-27 09:32N 51°18' E 004°16'0 0.0
2016-Jun-27 08:32N 51°18' E 004°16'0 0.0
2016-Jun-27 07:32N 51°18' E 004°16'0 0.0
2016-Jun-27 06:29N 51°18' E 004°16'0 0.0
2016-Jun-27 05:32N 51°18' E 004°16'0 0.0
2016-Jun-27 04:26N 51°18' E 004°16'0 0.0
2016-Jun-27 03:32N 51°18' E 004°16'0 0.0
2016-Jun-27 02:32N 51°18' E 004°16'0 0.0
2016-Jun-27 01:32N 51°18' E 004°16'0 0.0
2016-Jun-27 00:33N 51°18' E 004°16'0 0.0
2016-Jun-26 23:33N 51°18' E 004°16'0 0.0
2016-Jun-26 22:33N 51°18' E 004°16'0 0.0
2016-Jun-26 21:33N 51°18' E 004°16'0 0.0
2016-Jun-26 20:33N 51°18' E 004°16'0 0.0
2016-Jun-26 19:33N 51°18' E 004°16'0 0.0
2016-Jun-26 18:33N 51°18' E 004°16'0 0.0
2016-Jun-26 17:33N 51°18' E 004°16'0 0.0
2016-Jun-26 16:33N 51°18' E 004°16'0 0.0
2016-Jun-26 15:33N 51°18' E 004°16'0 0.0
2016-Jun-26 14:33N 51°18' E 004°16'0 0.0
2016-Jun-26 13:33N 51°18' E 004°16'0 0.0
2016-Jun-26 12:33N 51°18' E 004°16'0 0.0
2016-Jun-26 11:33N 51°18' E 004°16'0 0.0
2016-Jun-26 10:33N 51°18' E 004°16'0 0.0
2016-Jun-26 09:33N 51°18' E 004°16'0 0.0
2016-Jun-26 08:33N 51°18' E 004°16'0 0.0
2016-Jun-26 07:33N 51°18' E 004°16'0 0.0
2016-Jun-26 06:33N 51°18' E 004°16'3 3.1
2016-Jun-26 05:33N 51°21' E 004°16'1010.5
2016-Jun-26 04:33N 51°26' E 004°01'1211.8
2016-Jun-26 03:33N 51°25' E 003°43'1312.5
2016-Jun-26 02:33N 51°24' E 003°22'1616.4
2016-Jun-26 01:33N 51°25' E 002°56'1312.5
2016-Jun-26 00:33N 51°22' E 002°37'1111.3
2016-Jun-25 23:34N 51°18' E 002°20'1515.1
2016-Jun-25 22:34N 51°10' E 001°59'1514.9
2016-Jun-25 21:34N 51°02' E 001°39'1514.9
2016-Jun-25 20:32N 50°50' E 001°26'1515.2
2016-Jun-25 19:33N 50°37' E 001°14'3115.5
2016-Jun-25 17:33N 50°25' E 000°29'1615.7
2016-Jun-25 16:34N 50°21' E 000°05'1515.0
2016-Jun-25 15:33N 50°20' W 000°19'1514.8
2016-Jun-25 14:33N 50°21' W 000°42'1616.1
2016-Jun-25 13:34N 50°22' W 001°07'2517.4
2016-Jun-25 12:08N 50°23' W 001°45'533.3
2016-Jun-25 12:00N 50°18' W 001°48'2819.4 270 / 121019.510.8 1.021.0 7.514.5
2016-Jun-25 10:34N 50°24' W 002°31'1817.5
2016-Jun-25 09:34N 50°24' W 002°58'1515.2
2016-Jun-25 08:33N 50°25' W 003°22'9 8.8
2016-Jun-25 07:33N 50°17' W 003°27'1312.6
2016-Jun-25 06:33N 50°06' W 003°36'1312.9
2016-Jun-25 05:33N 50°00' W 003°54'4 6.7
2016-Jun-25 05:00N 50°00' W 003°48'1636.9 290 / 211020.310.8 2.015.011.316.0
2016-Jun-25 04:33N 49°55' W 004°11'1312.6
2016-Jun-25 03:33N 49°49' W 004°29'4211.7
2016-Jun-25 00:00N 49°36' W 005°30'7813.0 270 / 181021.910.8 1.015.013.217.0
2016-Jun-24 18:00N 49°30' W 007°30'19816.5 300 / 201022.310.8 2.016.010.416.7
2016-Jun-24 06:00N 49°00' W 012°30'10016.7 320 / 201023.010.8 2.015.0 9.215.5
2016-Jun-24 00:00N 48°42' W 015°00'10217.0 310 / 101024.410.8 1.015.011.316.0
2016-Jun-23 18:00N 48°18' W 017°30'9916.5 300 / 181023.010.8 2.015.0 9.216.0
2016-Jun-23 12:00N 47°54' W 019°54'10517.6 310 / 141023.710.8 1.016.010.415.6
2016-Jun-23 06:00N 47°24' W 022°24'9515.8 310 / 211021.910.8 3.015.0 9.216.0
2016-Jun-23 00:00N 46°54' W 024°36'10918.2 340 / 81022.110.8 1.015.013.216.0
2016-Jun-22 18:00N 46°18' W 027°06'9115.1 310 / 171024.310.8 2.017.013.516.0
2016-Jun-22 12:00N 45°42' W 029°06'11318.9 290 / 211021.4 2.2 1.018.012.716.5
2016-Jun-22 06:00N 45°00' W 031°36'9916.5 300 / 241026.310.8 3.016.012.417.0
2016-Jun-22 00:00N 44°18' W 033°42'18116.5 300 / 251025.310.8 2.017.015.315.0
2016-Jun-21 13:00N 42°54' W 037°24'12217.4 280 / 201027.810.8 2.020.014.917.5
2016-Jun-21 06:00N 41°54' W 039°48'20316.9 270 / 131023.110.8 1.517.013.519.0
2016-Jun-20 18:00N 40°06' W 043°36'18215.1 360 / 51030.727.0 20.0 3.119.7
2016-Jun-20 06:00N 38°54' W 047°12'   050 / 201022.610.8 3.019.015.720.0
Track history (hours):
 
Tides and Currents Weather Stations Pressure Air Temp Water Temp Dewpoint Dewpoint Depression Visibility Wind Speed Wind Dir Waves Ship Positions

Maersk Iowa

Owner: FARRELL LINES INC, Norfolk, VA. More information available from US FCC via Universal Licensing System and Coast Guard Vessel Documentation Center.

Last reported at 2016-Jun-29 23:28 UTC. Time now 2016-Jun-30 01:32 UTC.
Position N 53°08' E 004°30'.

Length 292 m; draft 11 m.

Type: Ship (hazmat cat A). MMSI: 367606000.

Date/timePositionNaut miles runAvg speedWind from/ knotsBaromVisibWave heightAir tempDewpointWater temp
2016-Jun-29 23:28N 53°08' E 004°30'1415.6
2016-Jun-29 22:33N 52°56' E 004°18'1615.4
2016-Jun-29 21:32N 52°42' E 004°05'1515.2
2016-Jun-29 20:33N 52°29' E 003°54'1716.8
2016-Jun-29 19:33N 52°12' E 003°54'1111.4
2016-Jun-29 18:33N 52°01' E 003°57'4 3.5
2016-Jun-29 17:33N 51°59' E 004°01'1 1.4
2016-Jun-29 16:33N 51°57' E 004°00'0 0.0
2016-Jun-29 15:32N 51°57' E 004°00'0 0.0
2016-Jun-29 14:32N 51°57' E 004°00'0 0.0
2016-Jun-29 13:32N 51°57' E 004°00'0 0.0
2016-Jun-29 12:32N 51°57' E 004°00'0 0.0
2016-Jun-29 11:32N 51°57' E 004°00'0 0.0
2016-Jun-29 10:32N 51°57' E 004°00'0 0.0
2016-Jun-29 09:32N 51°57' E 004°00'0 0.0
2016-Jun-29 08:32N 51°57' E 004°00'0 0.0
2016-Jun-29 07:32N 51°57' E 004°00'0 0.0
2016-Jun-29 06:32N 51°57' E 004°00'0 0.0
2016-Jun-29 05:32N 51°57' E 004°00'0 0.0
2016-Jun-29 04:32N 51°57' E 004°00'0 0.0
2016-Jun-29 03:32N 51°57' E 004°00'0 0.0
2016-Jun-29 02:32N 51°57' E 004°00'0 0.0
2016-Jun-29 01:32N 51°57' E 004°00'0 0.0
2016-Jun-29 00:33N 51°57' E 004°00'0 0.0
2016-Jun-28 23:33N 51°57' E 004°00'0 0.0
2016-Jun-28 22:33N 51°57' E 004°00'0 0.0
2016-Jun-28 21:33N 51°57' E 004°00'0 0.0
2016-Jun-28 20:33N 51°57' E 004°00'0 0.0
2016-Jun-28 19:33N 51°57' E 004°00'0 0.0
2016-Jun-28 18:33N 51°57' E 004°00'0 0.0
2016-Jun-28 17:33N 51°57' E 004°00'0 0.0
2016-Jun-28 16:33N 51°57' E 004°00'0 0.0
2016-Jun-28 15:33N 51°57' E 004°00'0 0.0
2016-Jun-28 14:33N 51°57' E 004°00'0 0.0
2016-Jun-28 13:33N 51°57' E 004°00'0 0.0
2016-Jun-28 12:33N 51°57' E 004°00'0 0.0
2016-Jun-28 11:33N 51°57' E 004°00'0 0.0
2016-Jun-28 10:33N 51°57' E 004°00'0 0.0
2016-Jun-28 09:33N 51°57' E 004°00'0 0.0
2016-Jun-28 08:33N 51°57' E 004°00'2 1.9
2016-Jun-28 07:33N 51°58' E 004°03'1 1.4
2016-Jun-28 06:33N 51°59' E 004°02'17 8.6
2016-Jun-28 04:33N 51°57' E 003°34'1611.7
2016-Jun-28 03:10N 51°50' E 003°10'2 3.8
2016-Jun-28 02:33N 51°51' E 003°14'4 3.9
2016-Jun-28 01:32N 51°51' E 003°08'1111.3
2016-Jun-28 00:32N 51°47' E 002°51'1110.2
2016-Jun-27 23:28N 51°46' E 003°08'7 7.8
2016-Jun-27 22:31N 51°39' E 003°11'1515.8
2016-Jun-27 21:33N 51°25' E 002°60'1615.6
2016-Jun-27 20:33N 51°25' E 003°25'1211.5
2016-Jun-27 19:34N 51°23' E 003°43'1010.2
2016-Jun-27 18:33N 51°26' E 003°59'9 9.1
2016-Jun-27 17:33N 51°23' E 004°13'6 6.2
2016-Jun-27 16:33N 51°18' E 004°16'0 0.0
2016-Jun-27 15:33N 51°18' E 004°16'0 0.0
2016-Jun-27 14:33N 51°18' E 004°16'0 0.0
2016-Jun-27 13:29N 51°18' E 004°16'0 0.0
2016-Jun-27 12:32N 51°18' E 004°16'0 0.0
2016-Jun-27 11:32N 51°18' E 004°16'0 0.0
2016-Jun-27 10:32N 51°18' E 004°16'0 0.0
2016-Jun-27 09:32N 51°18' E 004°16'0 0.0
2016-Jun-27 08:32N 51°18' E 004°16'0 0.0
2016-Jun-27 07:32N 51°18' E 004°16'0 0.0
2016-Jun-27 06:29N 51°18' E 004°16'0 0.0
2016-Jun-27 05:32N 51°18' E 004°16'0 0.0
2016-Jun-27 04:26N 51°18' E 004°16'0 0.0
2016-Jun-27 03:32N 51°18' E 004°16'0 0.0
2016-Jun-27 02:32N 51°18' E 004°16'0 0.0
2016-Jun-27 01:32N 51°18' E 004°16'0 0.0
2016-Jun-27 00:33N 51°18' E 004°16'0 0.0
2016-Jun-26 23:33N 51°18' E 004°16'0 0.0
2016-Jun-26 22:33N 51°18' E 004°16'0 0.0
2016-Jun-26 21:33N 51°18' E 004°16'0 0.0
2016-Jun-26 20:33N 51°18' E 004°16'0 0.0
2016-Jun-26 19:33N 51°18' E 004°16'0 0.0
2016-Jun-26 18:33N 51°18' E 004°16'0 0.0
2016-Jun-26 17:33N 51°18' E 004°16'0 0.0
2016-Jun-26 16:33N 51°18' E 004°16'0 0.0
2016-Jun-26 15:33N 51°18' E 004°16'0 0.0
2016-Jun-26 14:33N 51°18' E 004°16'0 0.0
2016-Jun-26 13:33N 51°18' E 004°16'0 0.0
2016-Jun-26 12:33N 51°18' E 004°16'0 0.0
2016-Jun-26 11:33N 51°18' E 004°16'0 0.0
2016-Jun-26 10:33N 51°18' E 004°16'0 0.0
2016-Jun-26 09:33N 51°18' E 004°16'0 0.0
2016-Jun-26 08:33N 51°18' E 004°16'0 0.0
2016-Jun-26 07:33N 51°18' E 004°16'0 0.0
2016-Jun-26 06:33N 51°18' E 004°16'3 3.1
2016-Jun-26 05:33N 51°21' E 004°16'1010.5
2016-Jun-26 04:33N 51°26' E 004°01'1211.8
2016-Jun-26 03:33N 51°25' E 003°43'1312.5
2016-Jun-26 02:33N 51°24' E 003°22'1616.4
2016-Jun-26 01:33N 51°25' E 002°56'1312.5
2016-Jun-26 00:33N 51°22' E 002°37'1111.3
2016-Jun-25 23:34N 51°18' E 002°20'1515.1
2016-Jun-25 22:34N 51°10' E 001°59'1514.9
2016-Jun-25 21:34N 51°02' E 001°39'1514.9
2016-Jun-25 20:32N 50°50' E 001°26'1515.2
2016-Jun-25 19:33N 50°37' E 001°14'3115.5
2016-Jun-25 17:33N 50°25' E 000°29'1615.7
2016-Jun-25 16:34N 50°21' E 000°05'1515.0
2016-Jun-25 15:33N 50°20' W 000°19'1514.8
2016-Jun-25 14:33N 50°21' W 000°42'1616.1
2016-Jun-25 13:34N 50°22' W 001°07'2517.4
2016-Jun-25 12:08N 50°23' W 001°45'533.3
2016-Jun-25 12:00N 50°18' W 001°48'2819.4 270 / 121019.510.8 1.021.0 7.514.5
2016-Jun-25 10:34N 50°24' W 002°31'1817.5
2016-Jun-25 09:34N 50°24' W 002°58'1515.2
2016-Jun-25 08:33N 50°25' W 003°22'9 8.8
2016-Jun-25 07:33N 50°17' W 003°27'1312.6
2016-Jun-25 06:33N 50°06' W 003°36'1312.9
2016-Jun-25 05:33N 50°00' W 003°54'4 6.7
2016-Jun-25 05:00N 50°00' W 003°48'1636.9 290 / 211020.310.8 2.015.011.316.0
2016-Jun-25 04:33N 49°55' W 004°11'1312.6
2016-Jun-25 03:33N 49°49' W 004°29'4211.7
2016-Jun-25 00:00N 49°36' W 005°30'7813.0 270 / 181021.910.8 1.015.013.217.0
2016-Jun-24 18:00N 49°30' W 007°30'19816.5 300 / 201022.310.8 2.016.010.416.7
2016-Jun-24 06:00N 49°00' W 012°30'10016.7 320 / 201023.010.8 2.015.0 9.215.5
2016-Jun-24 00:00N 48°42' W 015°00'10217.0 310 / 101024.410.8 1.015.011.316.0
2016-Jun-23 18:00N 48°18' W 017°30'9916.5 300 / 181023.010.8 2.015.0 9.216.0
2016-Jun-23 12:00N 47°54' W 019°54'10517.6 310 / 141023.710.8 1.016.010.415.6
2016-Jun-23 06:00N 47°24' W 022°24'9515.8 310 / 211021.910.8 3.015.0 9.216.0
2016-Jun-23 00:00N 46°54' W 024°36'10918.2 340 / 81022.110.8 1.015.013.216.0
2016-Jun-22 18:00N 46°18' W 027°06'9115.1 310 / 171024.310.8 2.017.013.516.0
2016-Jun-22 12:00N 45°42' W 029°06'11318.9 290 / 211021.4 2.2 1.018.012.716.5
2016-Jun-22 06:00N 45°00' W 031°36'9916.5 300 / 241026.310.8 3.016.012.417.0
2016-Jun-22 00:00N 44°18' W 033°42'18116.5 300 / 251025.310.8 2.017.015.315.0
2016-Jun-21 13:00N 42°54' W 037°24'12217.4 280 / 201027.810.8 2.020.014.917.5
2016-Jun-21 06:00N 41°54' W 039°48'20316.9 270 / 131023.110.8 1.517.013.519.0
2016-Jun-20 18:00N 40°06' W 043°36'18215.1 360 / 51030.727.0 20.0 3.119.7
2016-Jun-20 06:00N 38°54' W 047°12'   050 / 201022.610.8 3.019.015.720.0

Dump ship's entire track history